Flemington, NJ

4:15 AM EST on January 27, 2015 (GMT -0500)
North Forty Doghouse | Change Station
CLOSE
Current Station
Personal Weather Station
Location: Flemington, NJ
Elevation: 180 ft
Nearby Weather Stations
Active Advisory: Winter Storm Warning Active Notice: Public Information Statement

Elev 180 ft 40.50 °N, 74.83 °W | Updated 8 seconds ago

Snow
Snow
21.0 °F
Feels Like 14 °F
N
5.0
Wind Variable Wind from North
Gusts 17.0 mph

Today
High -- | Low -- °F
--% Chance of Precip.
Yesterday
High -- | Low -- °F
Precip. -- in
7:13 AM 5:11 PM
First Quarter, 52% visible
Pressure 29.70 in
Visibility 1.8 miles
Clouds Overcast 2800 ft
Windchill 14 °F
Dew Point 19 °F
Humidity 91%
Rainfall 0.00 in
Snow Depth Not available.
UV 0 out of 12
Pollen .10 out of 12
Air Quality Not available.
Flu Activity Not available.
METAR KSMQ 270853Z AUTO 36007G16KT 1 3/4SM -SN OVC028 M05/M08 A2969 RMK AO2 SLP057 P0000 60000 T10501083 53001 TSNO

More Conditions Fewer Conditions

Pressure 29.70 in
Visibility 1.8 miles
Clouds Overcast 2800 ft
Windchill 14 °F
Dew Point 19 °F
Humidity 91%
Rainfall 0.00 in
Snow Depth Not available.
UV 0 out of 12
Pollen .10 out of 12
Air Quality Not available.
Flu Activity Not available.
METAR KSMQ 270853Z AUTO 36007G16KT 1 3/4SM -SN OVC028 M05/M08 A2969 RMK AO2 SLP057 P0000 60000 T10501083 53001 TSNO

More Conditions Fewer Conditions

10-Day Weather Forecast

Almanac

Astronomy

Jan. 27, 2015 Rise Set
Actual Time
Civil Twilight
Nautical Twilight
Astronomical Twilight
Moon
Length of Visible Light
Length of Day
Tomorrow will be .
, % of the Moon is Illuminated

Today's Extremes

State Highs State Lows

Community

WunderPhotos

Upload Photos

1,790,555 photos uploaded!

WunderBlogs® & News

Nearby

Air Quality

  Air Quality AQ Index Pollutant
Not available.

Snow Depth

Station Depth Elevation

Earthquake Activity

City Distance Mag. Time & Date
Minimum magnitude displayed is 2.5.

Coastal Water Temperatures

Place Temperature

Nearby Weather Stations